NJAM2 KSAN-
Flight info
| Callsign | NJAM2 |
|---|---|
| Flight time | N/A |
| Altitude | VFR |
| Route | VFR S |
| Aircraft | JSX/L-VGD/C |
Departure
| Time | 2026-04-26 17:11 |
|---|---|
| Airport | San Diego International Airport (KSAN) |
Arrival
| Time | N/A |
|---|---|
| Airport | - |
| Time | Latitude | Longitude | Altitude | Speed | Heading |
|---|---|---|---|---|---|
| 2026-04-26 17:02 | 32.73567 | -117.18925 | 13 ft | 0 kts | 109° |
| 2026-04-26 17:02 | 32.73566 | -117.18921 | 13 ft | 0 kts | 115° |
| 2026-04-26 17:05 | 32.73565 | -117.18919 | 13 ft | 4 kts | 115° |
| 2026-04-26 17:05 | 32.73564 | -117.18915 | 13 ft | 0 kts | 121° |
| 2026-04-26 17:05 | 32.73496 | -117.18913 | 13 ft | 0 kts | 205° |
| 2026-04-26 17:06 | 32.73461 | -117.18932 | 14 ft | 15 kts | 205° |
| 2026-04-26 17:06 | 32.73452 | -117.18971 | 15 ft | 9 kts | 329° |
| 2026-04-26 17:06 | 32.73470 | -117.18998 | 14 ft | 0 kts | 273° |
| 2026-04-26 17:06 | 32.73469 | -117.19002 | 14 ft | 1 kts | 183° |
| 2026-04-26 17:07 | 32.73455 | -117.18911 | 15 ft | 19 kts | 103° |
| 2026-04-26 17:07 | 32.73404 | -117.18703 | 14 ft | 36 kts | 106° |
| 2026-04-26 17:07 | 32.73355 | -117.18482 | 19 ft | 12 kts | 125° |
| 2026-04-26 17:07 | 32.73312 | -117.18434 | 19 ft | 7 kts | 158° |
| 2026-04-26 17:08 | 32.73307 | -117.18432 | 19 ft | 0 kts | 161° |
| 2026-04-26 17:08 | 32.73313 | -117.18407 | 18 ft | 16 kts | 82° |
| 2026-04-26 17:08 | 32.73271 | -117.18171 | 17 ft | 37 kts | 102° |
| 2026-04-26 17:08 | 32.73207 | -117.17879 | 16 ft | 36 kts | 106° |
| 2026-04-26 17:09 | 32.73155 | -117.17680 | 18 ft | 20 kts | 106° |
| 2026-04-26 17:09 | 32.73133 | -117.17594 | 18 ft | 9 kts | 120° |
| 2026-04-26 17:09 | 32.73132 | -117.17592 | 18 ft | 0 kts | 124° |
| 2026-04-26 17:10 | 32.73052 | -117.17535 | 19 ft | 25 kts | 189° |
| 2026-04-26 17:10 | 32.73099 | -117.17908 | 671 ft | 0 kts | 285° |
| 2026-04-26 17:10 | 32.73460 | -117.19399 | 119 ft | 204 kts | 289° |
| 2026-04-26 17:11 | 32.73779 | -117.20795 | 1145 ft | 148 kts | 284° |
| 2026-04-26 17:11 | 32.73967 | -117.21979 | 1576 ft | 148 kts | 283° |
| 2026-04-26 17:11 | 32.74111 | -117.23087 | 1725 ft | 136 kts | 285° |
| 2026-04-26 17:11 | 32.74497 | -117.24374 | 1747 ft | 173 kts | 300° |
| 2026-04-26 17:12 | 32.72409 | -117.24895 | 2962 ft | 170 kts | 188° |
| 2026-04-26 17:12 | 32.72410 | -117.25007 | 3516 ft | 135 kts | 355° |